createdAt,value
2019-04-07T00:00:12.349Z,978.13
2019-04-07T00:01:12.326Z,978.16
2019-04-07T00:02:12.202Z,978.15
2019-04-07T00:03:12.722Z,978.15
2019-04-07T00:04:12.144Z,978.16
2019-04-07T00:05:14.710Z,978.15
2019-04-07T00:06:11.908Z,978.15
2019-04-07T00:07:12.061Z,978.19
2019-04-07T00:08:12.319Z,978.18
2019-04-07T00:09:11.964Z,978.18
2019-04-07T00:10:12.046Z,978.16
2019-04-07T00:11:11.538Z,978.19
2019-04-07T00:12:11.466Z,978.20
2019-04-07T00:13:11.404Z,978.21
2019-04-07T00:14:11.335Z,978.19
2019-04-07T00:15:11.333Z,978.22
2019-04-07T00:16:11.187Z,978.19
2019-04-07T00:17:12.153Z,978.20
2019-04-07T00:18:11.042Z,978.15
2019-04-07T00:19:11.151Z,978.14
2019-04-07T00:20:10.905Z,978.16
2019-04-07T00:21:11.293Z,978.18
2019-04-07T00:22:11.326Z,978.18
2019-04-07T00:23:10.716Z,978.19
2019-04-07T00:24:10.595Z,978.17
2019-04-07T00:25:10.592Z,978.22
2019-04-07T00:26:10.468Z,978.17
2019-04-07T00:27:10.394Z,978.22
2019-04-07T00:28:10.322Z,978.24
2019-04-07T00:29:10.239Z,978.19
2019-04-07T00:30:10.162Z,978.23
2019-04-07T00:31:10.105Z,978.22
2019-04-07T00:32:10.033Z,978.20
2019-04-07T00:33:09.954Z,978.20
2019-04-07T00:34:09.876Z,978.22
2019-04-07T00:35:21.091Z,978.22
2019-04-07T00:36:09.736Z,978.26
2019-04-07T00:37:09.668Z,978.22
2019-04-07T00:38:09.626Z,978.20
2019-04-07T00:39:09.564Z,978.22
2019-04-07T00:40:09.634Z,978.25
2019-04-07T00:41:09.540Z,978.23
2019-04-07T00:42:09.431Z,978.23
2019-04-07T00:43:09.947Z,978.21
2019-04-07T00:44:09.161Z,978.25
2019-04-07T00:45:09.755Z,978.25
2019-04-07T00:46:09.020Z,978.23
2019-04-07T00:47:09.422Z,978.27
2019-04-07T00:48:09.066Z,978.26
2019-04-07T00:49:09.375Z,978.24
2019-04-07T00:50:08.804Z,978.29
2019-04-07T00:51:08.664Z,978.30
2019-04-07T00:52:08.587Z,978.30
2019-04-07T00:53:08.858Z,978.33
2019-04-07T00:54:08.461Z,978.32
2019-04-07T00:55:08.867Z,978.34
2019-04-07T00:56:08.307Z,978.27
2019-04-07T00:57:08.269Z,978.37
2019-04-07T00:58:08.287Z,978.33
2019-04-07T00:59:08.093Z,978.35
2019-04-07T01:00:07.993Z,978.35
2019-04-07T01:01:08.994Z,978.35
2019-04-07T01:02:07.874Z,978.34
2019-04-07T01:03:08.304Z,978.32
2019-04-07T01:04:07.707Z,978.32
2019-04-07T01:05:07.692Z,978.35
2019-04-07T01:06:07.633Z,978.39
2019-04-07T01:07:08.095Z,978.36
2019-04-07T01:08:07.427Z,978.38
2019-04-07T01:09:07.819Z,978.38
2019-04-07T01:10:07.284Z,978.41
2019-04-07T01:11:07.710Z,978.42
2019-04-07T01:12:07.223Z,978.39
2019-04-07T01:13:07.707Z,978.40
2019-04-07T01:14:07.043Z,978.44
2019-04-07T01:15:07.634Z,978.40
2019-04-07T01:16:06.848Z,978.45
2019-04-07T01:17:07.097Z,978.47
2019-04-07T01:18:06.695Z,978.43
2019-04-07T01:19:07.325Z,978.41
2019-04-07T01:20:06.581Z,978.40
2019-04-07T01:21:06.491Z,978.39
2019-04-07T01:22:06.503Z,978.38
2019-04-07T01:23:06.990Z,978.43
2019-04-07T01:24:06.539Z,978.41
2019-04-07T01:25:06.208Z,978.41
2019-04-07T01:26:06.418Z,978.45
2019-04-07T01:27:06.051Z,978.41
2019-04-07T01:28:06.602Z,978.42
2019-04-07T01:29:05.890Z,978.46
2019-04-07T01:30:06.280Z,978.43
2019-04-07T01:31:05.758Z,978.40
2019-04-07T01:32:06.054Z,978.42
2019-04-07T01:33:05.622Z,978.37
2019-04-07T01:34:05.544Z,978.37
2019-04-07T01:35:05.799Z,978.42
2019-04-07T01:36:05.391Z,978.42
2019-04-07T01:37:05.617Z,978.44
2019-04-07T01:38:05.252Z,978.45
2019-04-07T01:39:05.176Z,978.44
2019-04-07T01:40:05.752Z,978.46
2019-04-07T01:41:05.019Z,978.46
2019-04-07T01:42:05.050Z,978.47
2019-04-07T01:43:05.334Z,978.51
2019-04-07T01:44:04.832Z,978.47
2019-04-07T01:45:05.162Z,978.48
2019-04-07T01:46:05.198Z,978.49
2019-04-07T01:47:04.729Z,978.49
2019-04-07T01:48:04.951Z,978.51
2019-04-07T01:49:04.442Z,978.55
2019-04-07T01:50:04.366Z,978.52
2019-04-07T01:51:04.500Z,978.52
2019-04-07T01:52:04.276Z,978.55
2019-04-07T01:53:04.640Z,978.55
2019-04-07T01:54:04.081Z,978.56
2019-04-07T01:55:04.006Z,978.55
2019-04-07T01:56:03.933Z,978.61
2019-04-07T01:57:04.478Z,978.56
2019-04-07T01:58:04.020Z,978.56
2019-04-07T01:59:03.754Z,978.57
2019-04-07T02:00:03.643Z,978.55
2019-04-07T02:01:03.578Z,978.58
2019-04-07T02:02:03.559Z,978.55
2019-04-07T02:03:03.473Z,978.58
2019-04-07T02:04:03.938Z,978.62
2019-04-07T02:05:03.477Z,978.59
2019-04-07T02:06:05.017Z,978.62
2019-04-07T02:07:03.149Z,978.60
2019-04-07T02:08:03.080Z,978.62
2019-04-07T02:09:02.997Z,978.60
2019-04-07T02:10:02.923Z,978.60
2019-04-07T02:11:02.842Z,978.62
2019-04-07T02:12:03.386Z,978.66
2019-04-07T02:13:03.222Z,978.64
2019-04-07T02:14:02.637Z,978.66
2019-04-07T02:15:02.566Z,978.67
2019-04-07T02:16:02.827Z,978.66
2019-04-07T02:17:02.407Z,978.66
2019-04-07T02:18:02.508Z,978.68
2019-04-07T02:19:02.852Z,978.68
2019-04-07T02:20:02.641Z,978.70
2019-04-07T02:21:02.186Z,978.73
2019-04-07T02:22:02.055Z,978.69
2019-04-07T02:23:02.026Z,978.74
2019-04-07T02:24:02.579Z,978.71
2019-04-07T02:25:01.888Z,978.74
2019-04-07T02:26:02.342Z,978.76
2019-04-07T02:27:01.845Z,978.78
2019-04-07T02:28:02.306Z,978.79
2019-04-07T02:29:01.629Z,978.82
2019-04-07T02:30:01.837Z,978.81
2019-04-07T02:31:01.393Z,978.84
2019-04-07T02:32:01.471Z,978.88
2019-04-07T02:33:02.283Z,978.90
2019-04-07T02:34:01.185Z,978.92
2019-04-07T02:35:01.526Z,978.88
2019-04-07T02:36:16.053Z,978.90
2019-04-07T02:37:00.961Z,978.87
2019-04-07T02:38:00.883Z,978.91
2019-04-07T02:39:00.832Z,978.88
2019-04-07T02:40:00.752Z,978.92
2019-04-07T02:41:00.667Z,978.92
2019-04-07T02:42:00.595Z,978.93
2019-04-07T02:43:00.873Z,978.90
2019-04-07T02:44:00.447Z,978.94
2019-04-07T02:45:01.327Z,978.97
2019-04-07T02:46:00.316Z,978.92
2019-04-07T02:47:00.883Z,978.97
2019-04-07T02:48:01.151Z,978.97
2019-04-07T02:49:00.089Z,979.00
2019-04-07T02:50:00.017Z,978.92
2019-04-07T02:50:59.941Z,979.03
2019-04-07T02:52:00.506Z,979.01
2019-04-07T02:52:59.887Z,979.00
2019-04-07T02:54:00.661Z,979.03
2019-04-07T02:54:59.656Z,979.05
2019-04-07T02:56:00.340Z,979.06
2019-04-07T02:57:00.460Z,979.09
2019-04-07T02:57:59.621Z,979.08
2019-04-07T02:58:59.462Z,979.04
2019-04-07T02:59:59.642Z,979.08
2019-04-07T03:00:59.313Z,979.10
2019-04-07T03:01:59.410Z,979.13
2019-04-07T03:02:59.085Z,979.12
2019-04-07T03:03:59.924Z,979.10
2019-04-07T03:04:59.877Z,979.08
2019-04-07T03:05:58.857Z,979.14
2019-04-07T03:06:58.842Z,979.13
2019-04-07T03:07:59.493Z,979.14
2019-04-07T03:08:59.455Z,979.15
2019-04-07T03:09:58.586Z,979.17
2019-04-07T03:10:58.716Z,979.24
2019-04-07T03:11:58.420Z,979.22
2019-04-07T03:12:58.785Z,979.23
2019-04-07T03:13:58.707Z,979.24
2019-04-07T03:14:58.503Z,979.25
2019-04-07T03:15:58.143Z,979.26
2019-04-07T03:16:58.059Z,979.25
2019-04-07T03:17:57.984Z,979.26
2019-04-07T03:18:58.030Z,979.33
2019-04-07T03:19:57.863Z,979.27
2019-04-07T03:20:57.783Z,979.33
2019-04-07T03:21:57.872Z,979.34
2019-04-07T03:22:57.652Z,979.34
2019-04-07T03:23:58.370Z,979.35
2019-04-07T03:24:58.255Z,979.34
2019-04-07T03:25:58.124Z,979.35
2019-04-07T03:26:57.347Z,979.41
2019-04-07T03:27:57.403Z,979.43
2019-04-07T03:28:58.010Z,979.46
2019-04-07T03:29:57.116Z,979.45
2019-04-07T03:30:59.100Z,979.46
2019-04-07T03:31:59.558Z,979.48
2019-04-07T03:32:58.059Z,979.49
2019-04-07T03:33:58.334Z,979.46
2019-04-07T03:34:58.156Z,979.53
2019-04-07T03:36:00.585Z,979.53
2019-04-07T03:37:18.264Z,979.54
2019-04-07T03:37:57.131Z,979.54
2019-04-07T03:38:56.474Z,979.55
2019-04-07T03:39:56.881Z,979.57
2019-04-07T03:40:56.949Z,979.55
2019-04-07T03:41:56.251Z,979.55
2019-04-07T03:42:56.270Z,979.55
2019-04-07T03:43:56.999Z,979.60
2019-04-07T03:44:56.678Z,979.62
2019-04-07T03:45:55.955Z,979.64
2019-04-07T03:46:55.881Z,979.64
2019-04-07T03:47:55.804Z,979.70
2019-04-07T03:48:55.747Z,979.66
2019-04-07T03:49:55.682Z,979.67
2019-04-07T03:50:55.600Z,979.71
2019-04-07T03:51:56.008Z,979.77
2019-04-07T03:52:56.370Z,979.78
2019-04-07T03:53:56.011Z,979.78
2019-04-07T03:54:55.297Z,979.80
2019-04-07T03:55:55.238Z,979.80
2019-04-07T03:56:55.161Z,979.79
2019-04-07T03:57:55.079Z,979.80
2019-04-07T03:58:55.808Z,979.82
2019-04-07T03:59:55.510Z,979.86
2019-04-07T04:00:55.098Z,979.85
2019-04-07T04:01:54.799Z,979.86
2019-04-07T04:02:54.870Z,979.85
2019-04-07T04:03:55.354Z,979.85
2019-04-07T04:04:55.486Z,979.85
2019-04-07T04:05:55.108Z,979.88
2019-04-07T04:06:54.759Z,979.94
2019-04-07T04:07:54.642Z,979.93
2019-04-07T04:08:54.979Z,979.92
2019-04-07T04:09:54.203Z,979.89
2019-04-07T04:10:54.138Z,979.91
2019-04-07T04:11:54.074Z,979.94
2019-04-07T04:12:53.993Z,980.03
2019-04-07T04:13:54.790Z,979.97
2019-04-07T04:14:54.731Z,980.01
2019-04-07T04:15:53.771Z,980.03
2019-04-07T04:16:54.316Z,980.03
2019-04-07T04:17:53.923Z,980.01
2019-04-07T04:18:53.645Z,980.05
2019-04-07T04:19:53.484Z,980.02
2019-04-07T04:20:54.249Z,980.03
2019-04-07T04:21:54.198Z,980.07
2019-04-07T04:22:53.255Z,980.06
2019-04-07T04:23:53.192Z,980.08
2019-04-07T04:24:53.451Z,980.06
2019-04-07T04:25:53.720Z,980.09
2019-04-07T04:26:53.750Z,980.11
2019-04-07T04:27:53.033Z,980.16
2019-04-07T04:28:52.815Z,980.17
2019-04-07T04:29:53.397Z,980.19
2019-04-07T04:30:53.648Z,980.20
2019-04-07T04:31:52.863Z,980.18
2019-04-07T04:32:52.518Z,980.18
2019-04-07T04:33:53.256Z,980.22
2019-04-07T04:34:53.072Z,980.27
2019-04-07T04:35:52.315Z,980.26
2019-04-07T04:36:53.043Z,980.29
2019-04-07T04:37:53.900Z,980.29
2019-04-07T04:38:52.914Z,980.34
2019-04-07T04:39:52.813Z,980.37
2019-04-07T04:40:52.755Z,980.38
2019-04-07T04:41:52.088Z,980.34
2019-04-07T04:42:52.109Z,980.38
2019-04-07T04:43:51.727Z,980.41
2019-04-07T04:44:52.314Z,980.40
2019-04-07T04:45:53.239Z,980.43
2019-04-07T04:46:51.495Z,980.46
2019-04-07T04:47:51.655Z,980.39
2019-04-07T04:48:51.709Z,980.43
2019-04-07T04:49:52.653Z,980.46
2019-04-07T04:50:51.231Z,980.42
2019-04-07T04:51:51.838Z,980.50
2019-04-07T04:52:51.064Z,980.47
2019-04-07T04:53:51.757Z,980.50
2019-04-07T04:54:51.777Z,980.56
2019-04-07T04:55:51.492Z,980.50
2019-04-07T04:56:51.579Z,980.54
2019-04-07T04:57:51.174Z,980.52
2019-04-07T04:58:50.798Z,980.53
2019-04-07T04:59:50.728Z,980.54
2019-04-07T05:00:50.808Z,980.63
2019-04-07T05:01:51.095Z,980.56
2019-04-07T05:02:50.345Z,980.62
2019-04-07T05:03:50.706Z,980.60
2019-04-07T05:04:50.224Z,980.62
2019-04-07T05:05:50.110Z,980.63
2019-04-07T05:06:50.041Z,980.65
2019-04-07T05:07:59.167Z,980.66
2019-04-07T05:08:50.032Z,980.66
2019-04-07T05:09:52.613Z,980.68
2019-04-07T05:10:49.744Z,980.69
2019-04-07T05:11:49.706Z,980.74
2019-04-07T05:12:50.249Z,980.73
2019-04-07T05:13:50.150Z,980.74
2019-04-07T05:14:49.465Z,980.79
2019-04-07T05:15:50.104Z,980.79
2019-04-07T05:16:49.307Z,980.78
2019-04-07T05:17:49.292Z,980.81
2019-04-07T05:18:49.214Z,980.79
2019-04-07T05:19:49.082Z,980.81
2019-04-07T05:20:49.008Z,980.80
2019-04-07T05:21:49.487Z,980.84
2019-04-07T05:22:48.872Z,980.82
2019-04-07T05:23:48.819Z,980.82
2019-04-07T05:24:48.851Z,980.85
2019-04-07T05:25:49.163Z,980.82
2019-04-07T05:26:48.603Z,980.85
2019-04-07T05:27:49.116Z,980.83
2019-04-07T05:28:48.430Z,980.77
2019-04-07T05:29:49.434Z,980.85
2019-04-07T05:30:48.943Z,980.91
2019-04-07T05:31:48.223Z,980.85
2019-04-07T05:32:48.880Z,980.85
2019-04-07T05:33:48.059Z,980.89
2019-04-07T05:34:47.990Z,980.89
2019-04-07T05:35:48.355Z,980.90
2019-04-07T05:36:47.890Z,980.93
2019-04-07T05:37:59.436Z,980.94
2019-04-07T05:38:47.705Z,980.95
2019-04-07T05:39:48.358Z,980.96
2019-04-07T05:40:47.565Z,980.98
2019-04-07T05:41:48.119Z,980.97
2019-04-07T05:42:47.523Z,980.99
2019-04-07T05:43:48.085Z,981.06
2019-04-07T05:44:47.620Z,981.04
2019-04-07T05:45:47.198Z,981.03
2019-04-07T05:46:49.486Z,981.05
2019-04-07T05:47:48.709Z,981.06
2019-04-07T05:48:49.395Z,981.09
2019-04-07T05:49:46.902Z,981.11
2019-04-07T05:50:47.277Z,981.09
2019-04-07T05:51:47.127Z,981.14
2019-04-07T05:52:46.670Z,981.17
2019-04-07T05:53:48.316Z,981.22
2019-04-07T05:54:49.550Z,981.28
2019-04-07T05:55:46.852Z,981.26
2019-04-07T05:56:46.417Z,981.28
2019-04-07T05:57:46.561Z,981.31
2019-04-07T05:58:46.311Z,981.40
2019-04-07T05:59:46.158Z,981.40
2019-04-07T06:00:47.431Z,981.43
2019-04-07T06:01:46.672Z,981.43
2019-04-07T06:02:45.934Z,981.45
2019-04-07T06:03:45.925Z,981.46
2019-04-07T06:04:46.815Z,981.42
2019-04-07T06:05:48.286Z,981.49
2019-04-07T06:06:46.267Z,981.50
2019-04-07T06:07:45.917Z,981.53
2019-04-07T06:08:47.807Z,981.55
2019-04-07T06:09:45.495Z,981.54
2019-04-07T06:10:45.897Z,981.55
2019-04-07T06:11:45.440Z,981.56
2019-04-07T06:12:47.919Z,981.54
2019-04-07T06:13:45.566Z,981.56
2019-04-07T06:14:46.561Z,981.57
2019-04-07T06:15:45.747Z,981.58
2019-04-07T06:16:45.189Z,981.59
2019-04-07T06:17:44.842Z,981.61
2019-04-07T06:18:45.287Z,981.65
2019-04-07T06:19:44.707Z,981.69
2019-04-07T06:20:45.784Z,981.74
2019-04-07T06:21:47.218Z,981.80
2019-04-07T06:22:46.603Z,981.80
2019-04-07T06:23:44.413Z,981.78
2019-04-07T06:24:44.827Z,981.85
2019-04-07T06:25:45.146Z,981.80
2019-04-07T06:26:48.117Z,981.84
2019-04-07T06:27:45.306Z,981.86
2019-04-07T06:28:48.467Z,981.92
2019-04-07T06:29:44.633Z,981.86
2019-04-07T06:30:44.015Z,981.92
2019-04-07T06:31:43.830Z,981.93
2019-04-07T06:32:44.685Z,981.97
2019-04-07T06:33:43.686Z,981.94
2019-04-07T06:34:44.432Z,981.97
2019-04-07T06:35:45.071Z,982.00
2019-04-07T06:36:44.162Z,982.02
2019-04-07T06:37:43.395Z,981.98
2019-04-07T06:38:50.326Z,982.01
2019-04-07T06:39:44.012Z,982.05
2019-04-07T06:40:43.733Z,982.07
2019-04-07T06:41:43.283Z,982.10
2019-04-07T06:42:44.742Z,982.16
2019-04-07T06:43:42.951Z,982.17
2019-04-07T06:44:43.503Z,982.19
2019-04-07T06:45:42.810Z,982.16
2019-04-07T06:46:43.429Z,982.18
2019-04-07T06:47:43.287Z,982.15
2019-04-07T06:48:42.578Z,982.16
2019-04-07T06:49:44.750Z,982.21
2019-04-07T06:50:49.487Z,982.21
2019-04-07T06:51:42.454Z,982.25
2019-04-07T06:52:42.311Z,982.28
2019-04-07T06:53:43.050Z,982.29
2019-04-07T06:54:42.142Z,982.35
2019-04-07T06:55:42.737Z,982.34
2019-04-07T06:56:42.013Z,982.41
2019-04-07T06:57:41.953Z,982.41
2019-04-07T06:58:41.935Z,982.45
2019-04-07T06:59:45.619Z,982.48
2019-04-07T07:00:41.713Z,982.45
2019-04-07T07:01:41.638Z,982.51
2019-04-07T07:02:43.714Z,982.49
2019-04-07T07:03:42.073Z,982.55
2019-04-07T07:04:43.692Z,982.51
2019-04-07T07:05:45.364Z,982.51
2019-04-07T07:06:42.117Z,982.56
2019-04-07T07:07:41.424Z,982.49
2019-04-07T07:08:45.869Z,982.56
2019-04-07T07:09:41.713Z,982.55
2019-04-07T07:10:42.174Z,982.59
2019-04-07T07:11:43.039Z,982.57
2019-04-07T07:12:41.229Z,982.59
2019-04-07T07:13:42.989Z,982.59
2019-04-07T07:14:44.520Z,982.58
2019-04-07T07:15:40.670Z,982.62
2019-04-07T07:16:43.589Z,982.63
2019-04-07T07:17:41.152Z,982.66
2019-04-07T07:18:40.430Z,982.64
2019-04-07T07:19:40.352Z,982.68
2019-04-07T07:20:40.529Z,982.67
2019-04-07T07:21:40.213Z,982.76
2019-04-07T07:22:41.702Z,982.73
2019-04-07T07:23:44.829Z,982.76
2019-04-07T07:24:39.993Z,982.76
2019-04-07T07:25:39.951Z,982.77
2019-04-07T07:26:39.970Z,982.78
2019-04-07T07:27:41.692Z,982.83
2019-04-07T07:28:42.866Z,982.82
2019-04-07T07:29:39.879Z,982.79
2019-04-07T07:30:40.395Z,982.81
2019-04-07T07:31:40.316Z,982.84
2019-04-07T07:32:39.931Z,982.82
2019-04-07T07:33:41.777Z,982.76
2019-04-07T07:34:41.303Z,982.82
2019-04-07T07:35:39.807Z,982.83
2019-04-07T07:36:39.132Z,982.82
2019-04-07T07:37:39.068Z,982.85
2019-04-07T07:38:39.729Z,982.89
2019-04-07T07:39:41.933Z,982.92
2019-04-07T07:40:39.611Z,982.94
2019-04-07T07:41:38.953Z,982.96
2019-04-07T07:42:38.723Z,982.94
2019-04-07T07:43:39.075Z,982.96
2019-04-07T07:44:39.724Z,983.00
2019-04-07T07:45:43.614Z,983.02
2019-04-07T07:46:38.578Z,982.98
2019-04-07T07:47:38.446Z,983.03
2019-04-07T07:48:38.882Z,983.05
2019-04-07T07:49:40.348Z,983.09
2019-04-07T07:50:40.313Z,983.08
2019-04-07T07:51:39.521Z,983.13
2019-04-07T07:52:38.563Z,983.09
2019-04-07T07:53:38.317Z,983.17
2019-04-07T07:54:38.488Z,983.16
2019-04-07T07:55:38.576Z,983.09
2019-04-07T07:56:38.697Z,983.17
2019-04-07T07:57:37.935Z,983.11
2019-04-07T07:58:37.586Z,983.20
2019-04-07T07:59:38.968Z,983.21
2019-04-07T08:00:40.384Z,983.18
2019-04-07T08:01:37.409Z,983.16
2019-04-07T08:02:37.319Z,983.19
2019-04-07T08:03:37.245Z,983.17
2019-04-07T08:04:37.742Z,983.23
2019-04-07T08:05:37.619Z,983.22
2019-04-07T08:06:40.186Z,983.20
2019-04-07T08:07:36.977Z,983.20
2019-04-07T08:08:37.281Z,983.26
2019-04-07T08:09:37.048Z,983.21
2019-04-07T08:10:37.572Z,983.20
2019-04-07T08:11:37.375Z,983.28
2019-04-07T08:12:36.631Z,983.28
2019-04-07T08:13:42.066Z,983.26
2019-04-07T08:14:37.115Z,983.31
2019-04-07T08:15:36.579Z,983.25
2019-04-07T08:16:37.285Z,983.28
2019-04-07T08:17:36.562Z,983.35
2019-04-07T08:18:39.399Z,983.30
2019-04-07T08:19:40.465Z,983.33
2019-04-07T08:20:36.077Z,983.30
2019-04-07T08:21:35.992Z,983.33
2019-04-07T08:22:41.317Z,983.38
2019-04-07T08:23:36.254Z,983.37
2019-04-07T08:24:36.223Z,983.38
2019-04-07T08:25:35.852Z,983.41
2019-04-07T08:26:35.656Z,983.42
2019-04-07T08:27:35.599Z,983.39
2019-04-07T08:28:36.121Z,983.41
2019-04-07T08:29:37.240Z,983.39
2019-04-07T08:30:36.080Z,983.46
2019-04-07T08:31:35.302Z,983.42
2019-04-07T08:32:35.231Z,983.41
2019-04-07T08:33:35.532Z,983.41
2019-04-07T08:34:35.092Z,983.45
2019-04-07T08:35:38.720Z,983.43
2019-04-07T08:36:34.967Z,983.45
2019-04-07T08:37:35.215Z,983.50
2019-04-07T08:38:35.401Z,983.54
2019-04-07T08:39:36.112Z,983.53
2019-04-07T08:40:36.483Z,983.51
2019-04-07T08:41:34.605Z,983.60
2019-04-07T08:42:34.539Z,983.54
2019-04-07T08:43:35.128Z,983.48
2019-04-07T08:44:34.483Z,983.49
2019-04-07T08:45:35.041Z,983.51
2019-04-07T08:46:39.716Z,983.53
2019-04-07T08:47:34.528Z,983.54
2019-04-07T08:48:34.130Z,983.51
2019-04-07T08:49:35.357Z,983.54
2019-04-07T08:50:34.392Z,983.54
2019-04-07T08:51:33.912Z,983.54
2019-04-07T08:52:34.358Z,983.54
2019-04-07T08:53:34.215Z,983.61
2019-04-07T08:54:33.706Z,983.58
2019-04-07T08:55:34.464Z,983.60
2019-04-07T08:56:34.168Z,983.55
2019-04-07T08:57:33.509Z,983.61
2019-04-07T08:58:37.948Z,983.59
2019-04-07T08:59:33.354Z,983.60
2019-04-07T09:00:33.644Z,983.56
2019-04-07T09:01:33.235Z,983.58
2019-04-07T09:02:33.163Z,983.58
2019-04-07T09:03:33.166Z,983.57
2019-04-07T09:04:33.013Z,983.67
2019-04-07T09:05:33.523Z,983.67
2019-04-07T09:06:33.202Z,983.68
2019-04-07T09:07:33.390Z,983.69
2019-04-07T09:08:34.712Z,983.73
2019-04-07T09:09:36.259Z,983.71
2019-04-07T09:10:34.482Z,983.79
2019-04-07T09:11:32.529Z,983.81
2019-04-07T09:12:32.487Z,983.80
2019-04-07T09:13:34.180Z,983.75
2019-04-07T09:14:32.321Z,983.83
2019-04-07T09:15:32.859Z,983.87
2019-04-07T09:16:32.197Z,983.89
2019-04-07T09:17:38.462Z,983.83
2019-04-07T09:18:32.099Z,983.97
2019-04-07T09:19:35.026Z,983.95
2019-04-07T09:20:31.922Z,983.93
2019-04-07T09:21:38.753Z,983.93
2019-04-07T09:22:32.662Z,984.01
2019-04-07T09:23:32.754Z,984.01
2019-04-07T09:24:32.750Z,984.00
2019-04-07T09:25:32.349Z,984.03
2019-04-07T09:26:32.090Z,984.08
2019-04-07T09:27:31.425Z,984.06
2019-04-07T09:28:31.626Z,984.09
2019-04-07T09:29:31.407Z,984.08
2019-04-07T09:30:31.890Z,984.03
2019-04-07T09:31:31.497Z,984.08
2019-04-07T09:32:31.091Z,984.08
2019-04-07T09:33:33.960Z,984.11
2019-04-07T09:34:30.954Z,984.12
2019-04-07T09:35:30.966Z,984.14
2019-04-07T09:36:32.602Z,984.09
2019-04-07T09:37:31.097Z,984.11
2019-04-07T09:38:30.666Z,984.12
2019-04-07T09:39:34.521Z,984.16
2019-04-07T09:40:30.539Z,984.16
2019-04-07T09:41:30.658Z,984.14
2019-04-07T09:42:30.481Z,984.19
2019-04-07T09:43:31.053Z,984.11
2019-04-07T09:44:33.881Z,984.16
2019-04-07T09:45:30.195Z,984.15
2019-04-07T09:46:30.125Z,984.16
2019-04-07T09:47:30.370Z,984.10
2019-04-07T09:48:29.977Z,984.14
2019-04-07T09:49:29.996Z,984.19
2019-04-07T09:50:29.850Z,984.20
2019-04-07T09:51:29.848Z,984.10
2019-04-07T09:52:30.502Z,984.23
2019-04-07T09:53:29.630Z,984.13
2019-04-07T09:54:29.566Z,984.11
2019-04-07T09:55:29.968Z,984.13
2019-04-07T09:56:31.418Z,984.16
2019-04-07T09:57:29.364Z,984.10
2019-04-07T09:58:29.713Z,984.14
2019-04-07T09:59:29.670Z,984.08
2019-04-07T10:00:29.915Z,984.17
2019-04-07T10:01:29.767Z,984.18
2019-04-07T10:02:31.991Z,984.23
2019-04-07T10:03:28.952Z,984.17
2019-04-07T10:04:28.871Z,984.21
2019-04-07T10:05:30.774Z,984.17
2019-04-07T10:06:28.742Z,984.23
2019-04-07T10:07:29.288Z,984.27
2019-04-07T10:08:28.606Z,984.25
2019-04-07T10:09:28.542Z,984.25
2019-04-07T10:10:29.470Z,984.21
2019-04-07T10:11:28.550Z,984.25
2019-04-07T10:12:30.048Z,984.28
2019-04-07T10:13:28.557Z,984.26
2019-04-07T10:14:28.202Z,984.28
2019-04-07T10:15:28.128Z,984.24
2019-04-07T10:16:28.490Z,984.22
2019-04-07T10:17:27.968Z,984.20
2019-04-07T10:18:28.563Z,984.28
2019-04-07T10:19:28.241Z,984.26
2019-04-07T10:20:28.547Z,984.33
2019-04-07T10:21:27.710Z,984.21
2019-04-07T10:22:27.698Z,984.29
2019-04-07T10:23:27.556Z,984.28
2019-04-07T10:24:27.498Z,984.30
2019-04-07T10:25:28.982Z,984.33
2019-04-07T10:26:27.378Z,984.30
2019-04-07T10:27:27.467Z,984.28
2019-04-07T10:28:27.683Z,984.29
2019-04-07T10:29:27.596Z,984.31
2019-04-07T10:30:27.085Z,984.33
2019-04-07T10:31:27.013Z,984.35
2019-04-07T10:32:27.836Z,984.34
2019-04-07T10:33:27.263Z,984.36
2019-04-07T10:34:27.373Z,984.37
2019-04-07T10:35:27.047Z,984.37
2019-04-07T10:36:27.041Z,984.40
2019-04-07T10:37:26.621Z,984.42
2019-04-07T10:38:26.966Z,984.35
2019-04-07T10:39:26.457Z,984.31
2019-04-07T10:40:26.502Z,984.32
2019-04-07T10:41:26.303Z,984.36
2019-04-07T10:42:27.140Z,984.31
2019-04-07T10:43:26.237Z,984.31
2019-04-07T10:44:26.117Z,984.31
2019-04-07T10:45:26.186Z,984.39
2019-04-07T10:46:26.021Z,984.39
2019-04-07T10:47:25.894Z,984.31
2019-04-07T10:48:26.179Z,984.40
2019-04-07T10:49:26.313Z,984.34
2019-04-07T10:50:25.757Z,984.32
2019-04-07T10:51:25.625Z,984.37
2019-04-07T10:52:26.058Z,984.30
2019-04-07T10:53:26.238Z,984.39
2019-04-07T10:54:25.416Z,984.31
2019-04-07T10:55:25.347Z,984.39
2019-04-07T10:56:25.505Z,984.32
2019-04-07T10:57:25.195Z,984.28
2019-04-07T10:58:25.126Z,984.33
2019-04-07T10:59:25.609Z,984.32
2019-04-07T11:00:25.810Z,984.29
2019-04-07T11:01:25.530Z,984.36
2019-04-07T11:02:25.006Z,984.36
2019-04-07T11:03:24.931Z,984.30
2019-04-07T11:04:24.723Z,984.33
2019-04-07T11:05:24.655Z,984.24
2019-04-07T11:06:24.588Z,984.31
2019-04-07T11:07:24.955Z,984.38
2019-04-07T11:08:24.459Z,984.35
2019-04-07T11:09:24.385Z,984.35
2019-04-07T11:10:34.478Z,984.37
2019-04-07T11:11:24.547Z,984.51
2019-04-07T11:12:24.172Z,984.39
2019-04-07T11:13:24.102Z,984.43
2019-04-07T11:14:24.048Z,984.37
2019-04-07T11:15:24.867Z,984.40
2019-04-07T11:16:24.715Z,984.35
2019-04-07T11:17:25.266Z,984.40
2019-04-07T11:18:23.756Z,984.38
2019-04-07T11:19:24.250Z,984.39
2019-04-07T11:20:23.607Z,984.34
2019-04-07T11:21:23.770Z,984.36
2019-04-07T11:22:23.592Z,984.37
2019-04-07T11:23:24.112Z,984.37
2019-04-07T11:24:23.997Z,984.40
2019-04-07T11:25:23.277Z,984.39
2019-04-07T11:26:23.636Z,984.39
2019-04-07T11:27:23.131Z,984.39
2019-04-07T11:28:23.060Z,984.35
2019-04-07T11:29:22.990Z,984.37
2019-04-07T11:30:22.917Z,984.39
2019-04-07T11:31:23.249Z,984.39
2019-04-07T11:32:22.943Z,984.43
2019-04-07T11:33:22.730Z,984.42
2019-04-07T11:34:22.720Z,984.33
2019-04-07T11:35:23.278Z,984.41
2019-04-07T11:36:23.517Z,984.47
2019-04-07T11:37:23.287Z,984.38
2019-04-07T11:38:22.995Z,984.42
2019-04-07T11:39:23.074Z,984.46
2019-04-07T11:40:22.667Z,984.49
2019-04-07T11:41:25.475Z,984.46
2019-04-07T11:42:22.954Z,984.52
2019-04-07T11:43:22.761Z,984.44
2019-04-07T11:44:22.828Z,984.39
2019-04-07T11:45:22.689Z,984.46
2019-04-07T11:46:22.035Z,984.49
2019-04-07T11:47:21.751Z,984.47
2019-04-07T11:48:22.017Z,984.49
2019-04-07T11:49:22.964Z,984.57
2019-04-07T11:50:22.235Z,984.48
2019-04-07T11:51:21.476Z,984.43
2019-04-07T11:52:21.414Z,984.49
2019-04-07T11:53:21.326Z,984.53
2019-04-07T11:54:21.636Z,984.58
2019-04-07T11:55:21.710Z,984.55
2019-04-07T11:56:21.759Z,984.57
2019-04-07T11:57:21.533Z,984.49
2019-04-07T11:58:28.849Z,984.43
2019-04-07T11:59:21.923Z,984.45
2019-04-07T12:00:20.894Z,984.39
2019-04-07T12:01:20.790Z,984.47
2019-04-07T12:02:21.759Z,984.40
2019-04-07T12:03:24.766Z,984.41
2019-04-07T12:04:20.565Z,984.45
2019-04-07T12:05:21.129Z,984.41
2019-04-07T12:06:23.378Z,984.48
2019-04-07T12:07:21.907Z,984.47
2019-04-07T12:08:20.411Z,984.56
2019-04-07T12:09:20.677Z,984.51
2019-04-07T12:10:20.325Z,984.44
2019-04-07T12:11:20.077Z,984.35
2019-04-07T12:12:20.257Z,984.37
2019-04-07T12:13:20.041Z,984.40
2019-04-07T12:14:20.290Z,984.40
2019-04-07T12:15:24.208Z,984.42
2019-04-07T12:16:20.119Z,984.43
2019-04-07T12:17:19.963Z,984.54
2019-04-07T12:18:20.266Z,984.48
2019-04-07T12:19:22.801Z,984.48
2019-04-07T12:20:19.602Z,984.46
2019-04-07T12:21:23.238Z,984.52
2019-04-07T12:22:19.323Z,984.51
2019-04-07T12:23:23.338Z,984.49
2019-04-07T12:24:19.194Z,984.50
2019-04-07T12:25:19.979Z,984.51
2019-04-07T12:26:19.042Z,984.45
2019-04-07T12:27:21.150Z,984.45